Terminal Aerodrome Forecast
Issued by NWS

Home | Current Version | Previous Version | Text Only | Print | Product List | Glossary On
Versions: 1 2 3 4 5 6 7 8 9 10 11 12 13 14 15 16
000
FTUS43 KDTX 292320
TAFDET
TAF
KDET 292320Z 3000/3024 00000KT P6SM SCT060 OVC090
      TEMPO 3000/3003 4SM -RA SCT025 OVC045
     FM300500 12005KT 3SM BR SCT045
     FM301000 VRB03KT 1SM BR BKN015
     FM301400 23005KT 3SM BR BKN025
     FM301600 23007KT P6SM BKN045=

USA.gov is the U.S. government's official web portal to all federal, state and local government web resources and services.